Home PIREPS Pireps

Flight BEL2702

  • Submitted By: David Chenery
  • Departure Airport: Basel-Mulhouse (LFSB)
  • Arrival Airport: Bruxelles National (EBBR)
  • Aircraft: BAE AVRO RJ1 (OO-DWG)
  • Flight Time: 00.55
  • Date Submitted: 09/11/2017
  • Status: Accepted
Flight Details
Gross Revenue:
(82 load / € 58.00 per unit
€ 4,756.00
Fuel Cost:
(2007 fuel used @ 5.1 / unit)
€ 10,235.70

Additional Log Information:

View Log

Aircraft Used in flight is Brussels Airlines
08:05 Brakes are On
08:07 Brakes are Released
08:07 You Took off @ 157 Knots and Flaps at Position 2
Departure Weather
LFSB 091900Z 26002KT 9999 OVC019 06/05 Q1026 NOSIGrn
08:08 Landing Gear Up @ 215 Knots and 1010 Feet
08:57 Landing Gear Down @ 195 Knots and 2190 Feet
09:00 You Landed @ 200 Knots and with -550 Vertical Speed
Arrival Weather
EBBR 091950Z 23010KT 7000 -DZ BKN008 08/06 Q1023 BECMG 4500 -DZ BR BKN006rn
09:00 Your Landing was very hard
09:01 You exceeded maximum bank angle
09:01 Brakes are On
09:01 Brussels Bel-Track1.0.1.2

Route Map

Corporate About Us Our Team Vacancies Information Fleet Route Network Rules and Regulations Operations Flight Schedules Event Center Tours Partners IVAO Vatsim Acars dev FSCB

fb Users Online No pilots online!
0 Pilot(s) and 192 Guest(s) Online
CMS by phpVMS - Design by Crazycreatives.com - Copyright © 2018 - Brussels Airlines Virtual